KBRD/BRD METAR and TAF weather

Enter ICAO airport designator
Station Type Date Time Source
KBRD METAR 2018/04/23 10:53 UTC NOAA

KBRD 231053Z AUTO 15003KT 7SM CLR M01/M03 A3021 RMK AO2 SLP241 T10111033


Station Type Date Time Source
KBRD Decoded METAR 2018/04/23 10:53 UTC NOAA

BRAINERD-CROW WING CO AIRPORT , MN, United States (KBRD) 46-24N 94-08W 372M
Apr 23, 2018 - 06:53 AM EDT / 2018.04.23 1053 UTC
Wind: from the SSE (150 degrees) at 3 MPH (3 KT):0
Visibility: 7 mile(s):0
Sky conditions: clear
Temperature: 30.0 F (-1.1 C)
Dew Point: 26.1 F (-3.3 C)
Relative Humidity: 84%
Pressure (altimeter): 30.21 in. Hg (1023 hPa)
ob: KBRD 231053Z AUTO 15003KT 7SM CLR M01/M03 A3021 RMK AO2 SLP241 T10111033
cycle: 11

Station Type Date Time Source
KBRD TAF 2018/04/23 12:34 UTC NOAA

TAF KBRD 231131Z 2312/2412 VRB03KT P6SM SCT250
TEMPO 2312/2313 6SM BR
FM231900 24005KT P6SM FEW250
FM240600 01007KT P6SM BKN060


Example: see airport list